createdAt,value
2019-04-11T00:00:52.057Z,99.90
2019-04-11T00:03:22.907Z,99.90
2019-04-11T00:05:54.719Z,99.90
2019-04-11T00:08:26.021Z,99.90
2019-04-11T00:10:57.526Z,99.90
2019-04-11T00:13:30.226Z,99.90
2019-04-11T00:16:02.462Z,99.90
2019-04-11T00:18:34.472Z,99.90
2019-04-11T00:21:06.637Z,99.90
2019-04-11T00:23:38.619Z,99.90
2019-04-11T00:26:11.846Z,99.90
2019-04-11T00:28:42.907Z,99.90
2019-04-11T00:31:14.634Z,99.90
2019-04-11T00:33:46.548Z,99.90
2019-04-11T00:36:17.627Z,99.90
2019-04-11T00:38:48.570Z,99.90
2019-04-11T00:41:19.714Z,99.90
2019-04-11T00:43:50.565Z,99.90
2019-04-11T00:46:22.617Z,99.90
2019-04-11T00:48:54.493Z,99.90
2019-04-11T00:51:25.691Z,99.90
2019-04-11T00:53:56.735Z,99.90
2019-04-11T00:56:28.366Z,99.90
2019-04-11T00:59:00.176Z,99.90
2019-04-11T01:01:31.627Z,99.90
2019-04-11T01:04:03.390Z,99.90
2019-04-11T01:06:36.694Z,99.90
2019-04-11T01:09:08.283Z,99.90
2019-04-11T01:11:40.405Z,99.90
2019-04-11T01:14:11.352Z,99.90
2019-04-11T01:16:46.668Z,99.90
2019-04-11T01:19:18.407Z,99.90
2019-04-11T01:21:52.918Z,99.90
2019-04-11T01:24:23.975Z,99.90
2019-04-11T01:26:54.833Z,99.90
2019-04-11T01:29:25.757Z,99.90
2019-04-11T01:31:58.259Z,99.90
2019-04-11T01:34:28.981Z,99.90
2019-04-11T01:37:01.687Z,99.90
2019-04-11T01:39:51.777Z,99.90
2019-04-11T01:42:23.509Z,99.90
2019-04-11T01:44:54.814Z,99.90
2019-04-11T01:47:27.581Z,99.90
2019-04-11T01:49:58.721Z,99.90
2019-04-11T01:52:31.049Z,99.90
2019-04-11T01:55:02.062Z,99.90
2019-04-11T01:57:33.936Z,99.90
2019-04-11T02:00:08.221Z,99.90
2019-04-11T02:02:57.060Z,99.90
2019-04-11T02:05:32.808Z,99.90
2019-04-11T02:08:03.976Z,99.90
2019-04-11T02:10:35.069Z,99.90
2019-04-11T02:13:07.880Z,99.90
2019-04-11T02:15:38.976Z,99.90
2019-04-11T02:18:09.608Z,99.90
2019-04-11T02:20:40.957Z,99.90
2019-04-11T02:23:13.507Z,99.90
2019-04-11T02:25:46.977Z,99.90
2019-04-11T02:28:18.618Z,99.90
2019-04-11T02:30:52.058Z,99.90
2019-04-11T02:33:25.942Z,99.90
2019-04-11T02:35:56.701Z,99.90
2019-04-11T02:38:28.491Z,99.90
2019-04-11T02:41:01.210Z,99.90
2019-04-11T02:43:32.093Z,99.90
2019-04-11T02:46:12.987Z,99.90
2019-04-11T02:48:37.550Z,99.90
2019-04-11T02:51:09.846Z,99.90
2019-04-11T02:53:42.151Z,99.90
2019-04-11T02:56:14.729Z,99.90
2019-04-11T02:58:46.394Z,99.90
2019-04-11T03:01:19.965Z,99.90
2019-04-11T03:03:51.944Z,99.90
2019-04-11T03:06:23.477Z,99.90
2019-04-11T03:08:55.004Z,99.90
2019-04-11T03:11:27.574Z,99.90
2019-04-11T03:14:01.229Z,99.90
2019-04-11T03:16:43.939Z,99.90
2019-04-11T03:19:18.357Z,99.90
2019-04-11T03:21:41.348Z,99.90
2019-04-11T03:24:10.899Z,99.90
2019-04-11T03:26:43.488Z,99.90
2019-04-11T03:29:15.543Z,99.90
2019-04-11T03:37:19.015Z,99.90
2019-04-11T03:39:48.861Z,99.90
2019-04-11T03:42:15.907Z,99.90
2019-04-11T03:44:36.886Z,99.90
2019-04-11T03:47:18.161Z,99.90
2019-04-11T03:49:43.346Z,99.90
2019-04-11T03:52:09.831Z,99.90
2019-04-11T03:54:41.011Z,99.90
2019-04-11T03:57:13.410Z,99.90
2019-04-11T03:59:47.728Z,99.90
2019-04-11T04:02:20.369Z,99.90
2019-04-11T04:04:53.994Z,99.90
2019-04-11T04:07:24.727Z,99.90
2019-04-11T04:09:55.687Z,99.90
2019-04-11T04:12:27.270Z,99.90
2019-04-11T04:15:01.285Z,99.90
2019-04-11T04:17:41.269Z,99.90
2019-04-11T04:20:21.823Z,99.90
2019-04-11T04:23:03.282Z,99.90
2019-04-11T04:25:34.825Z,99.90
2019-04-11T04:28:07.495Z,99.90
2019-04-11T04:30:41.054Z,99.90
2019-04-11T04:33:12.983Z,99.90
2019-04-11T04:35:44.835Z,99.90
2019-04-11T04:38:16.062Z,99.90
2019-04-11T04:41:05.825Z,99.90
2019-04-11T04:43:22.675Z,99.90
2019-04-11T04:46:08.842Z,99.90
2019-04-11T04:48:27.233Z,99.90
2019-04-11T04:51:03.447Z,99.90
2019-04-11T04:53:32.518Z,99.90
2019-04-11T04:56:03.548Z,99.90
2019-04-11T04:58:34.442Z,99.90
2019-04-11T05:01:07.080Z,99.90
2019-04-11T05:03:38.091Z,99.90
2019-04-11T05:06:10.108Z,99.90
2019-04-11T05:08:41.165Z,99.90
2019-04-11T05:11:13.962Z,99.90
2019-04-11T05:13:48.550Z,99.90
2019-04-11T05:16:18.063Z,99.90
2019-04-11T05:18:49.017Z,99.90
2019-04-11T05:21:21.305Z,99.90
2019-04-11T05:23:55.027Z,99.90
2019-04-11T05:26:25.919Z,99.90
2019-04-11T05:28:57.191Z,99.90
2019-04-11T05:31:28.203Z,99.90
2019-04-11T05:33:59.392Z,99.90
2019-04-11T05:36:30.401Z,99.90
2019-04-11T05:39:02.159Z,99.90
2019-04-11T05:41:35.022Z,99.90
2019-04-11T05:44:10.116Z,99.90
2019-04-11T05:46:49.170Z,99.90
2019-04-11T05:49:15.250Z,99.90
2019-04-11T05:51:47.721Z,99.90
2019-04-11T05:54:20.386Z,99.90
2019-04-11T05:56:56.251Z,99.90
2019-04-11T05:59:27.216Z,99.90
2019-04-11T06:02:07.705Z,99.90
2019-04-11T06:04:40.645Z,99.90
2019-04-11T06:07:25.292Z,99.90
2019-04-11T06:09:58.918Z,99.90
2019-04-11T06:12:48.392Z,99.90
2019-04-11T06:15:31.273Z,99.90
2019-04-11T06:18:05.158Z,99.90
2019-04-11T06:20:40.530Z,99.90
2019-04-11T06:23:31.670Z,99.90
2019-04-11T06:26:06.732Z,99.90
2019-04-11T06:28:39.140Z,99.90
2019-04-11T06:31:29.645Z,99.90
2019-04-11T06:34:02.326Z,99.90
2019-04-11T06:36:51.398Z,99.90
2019-04-11T06:39:33.632Z,99.90
2019-04-11T06:42:10.763Z,99.90
2019-04-11T06:44:54.256Z,99.90
2019-04-11T06:47:30.025Z,99.90
2019-04-11T06:50:03.116Z,99.90
2019-04-11T06:55:26.692Z,99.90
2019-04-11T06:58:00.444Z,99.90
2019-04-11T07:00:33.596Z,99.90
2019-04-11T07:05:40.645Z,99.90
2019-04-11T07:08:12.102Z,99.90
2019-04-11T07:11:03.004Z,99.90
2019-04-11T07:13:41.715Z,99.90
2019-04-11T07:16:13.339Z,99.90
2019-04-11T07:18:58.921Z,99.70
2019-04-11T07:21:31.507Z,97.20
2019-04-11T07:24:20.423Z,94.20
2019-04-11T07:26:54.249Z,93.00
2019-04-11T07:29:33.710Z,92.60
2019-04-11T07:32:06.549Z,91.60
2019-04-11T07:34:56.597Z,93.40
2019-04-11T07:37:30.248Z,88.60
2019-04-11T07:40:15.686Z,80.00
2019-04-11T07:43:12.794Z,79.70
2019-04-11T07:45:44.247Z,78.20
2019-04-11T07:48:17.293Z,76.70
2019-04-11T07:50:50.716Z,75.90
2019-04-11T07:53:24.511Z,72.60
2019-04-11T07:55:55.505Z,71.60
2019-04-11T07:58:29.229Z,72.50
2019-04-11T08:01:10.620Z,69.30
2019-04-11T08:03:58.186Z,66.20
2019-04-11T08:06:33.595Z,62.40
2019-04-11T08:09:22.312Z,62.90
2019-04-11T08:11:54.691Z,62.60
2019-04-11T08:14:31.118Z,60.60
2019-04-11T08:17:07.295Z,56.50
2019-04-11T08:19:57.475Z,56.90
2019-04-11T08:22:39.266Z,56.50
2019-04-11T08:25:11.847Z,59.90
2019-04-11T08:27:55.942Z,63.50
2019-04-11T08:30:22.535Z,58.50
2019-04-11T08:33:00.091Z,55.40
2019-04-11T08:35:40.035Z,51.90
2019-04-11T08:38:18.363Z,51.60
2019-04-11T08:41:03.168Z,52.50
2019-04-11T08:43:37.700Z,49.50
2019-04-11T08:46:25.155Z,48.30
2019-04-11T08:48:59.443Z,48.30
2019-04-11T08:51:33.521Z,50.00
2019-04-11T08:54:07.048Z,52.20
2019-04-11T08:56:40.469Z,45.70
2019-04-11T08:59:35.788Z,49.50
2019-04-11T09:02:07.260Z,50.00
2019-04-11T09:05:03.126Z,52.30
2019-04-11T09:07:31.652Z,57.70
2019-04-11T09:10:20.507Z,60.20
2019-04-11T09:12:55.762Z,61.30
2019-04-11T09:15:45.388Z,62.30
2019-04-11T09:18:16.156Z,60.90
2019-04-11T09:21:04.302Z,60.60
2019-04-11T09:23:37.643Z,62.30
2019-04-11T09:26:10.386Z,62.40
2019-04-11T09:28:41.807Z,62.30
2019-04-11T09:31:31.655Z,62.00
2019-04-11T09:34:06.117Z,62.60
2019-04-11T09:36:51.334Z,61.90
2019-04-11T09:39:30.971Z,62.80
2019-04-11T09:42:13.448Z,65.70
2019-04-11T09:44:49.296Z,57.10
2019-04-11T09:47:38.388Z,51.10
2019-04-11T09:50:27.333Z,49.90
2019-04-11T09:52:59.822Z,48.20
2019-04-11T09:55:44.333Z,53.10
2019-04-11T09:58:31.759Z,56.30
2019-04-11T10:01:04.318Z,55.70
2019-04-11T10:03:36.626Z,55.20
2019-04-11T10:06:15.895Z,55.40
2019-04-11T10:08:49.130Z,59.80
2019-04-11T10:11:38.045Z,59.80
2019-04-11T10:14:11.198Z,61.90
2019-04-11T10:17:00.576Z,60.80
2019-04-11T10:19:33.355Z,63.30
2019-04-11T10:22:11.019Z,63.10
2019-04-11T10:24:43.783Z,63.00
2019-04-11T10:27:16.487Z,61.80
2019-04-11T10:30:06.556Z,62.60
2019-04-11T10:32:43.371Z,63.40
2019-04-11T10:35:32.912Z,62.20
2019-04-11T10:38:06.685Z,63.40
2019-04-11T10:40:56.624Z,64.50
2019-04-11T10:43:30.411Z,64.80
2019-04-11T10:46:03.167Z,63.60
2019-04-11T10:48:39.827Z,64.30
2019-04-11T10:51:17.060Z,62.80
2019-04-11T10:53:51.218Z,60.80
2019-04-11T10:56:28.411Z,61.00
2019-04-11T10:59:01.524Z,62.40
2019-04-11T11:01:34.394Z,55.20
2019-04-11T11:04:19.982Z,57.30
2019-04-11T11:06:53.800Z,57.60
2019-04-11T11:09:26.836Z,58.70
2019-04-11T11:12:12.637Z,58.10
2019-04-11T11:15:03.203Z,56.80
2019-04-11T11:18:20.671Z,54.20
2019-04-11T11:20:50.076Z,49.70
2019-04-11T11:23:20.357Z,52.50
2019-04-11T11:26:02.782Z,54.10
2019-04-11T11:28:38.710Z,56.40
2019-04-11T11:31:28.033Z,57.80
2019-04-11T11:33:59.331Z,57.80
2019-04-11T11:36:39.508Z,56.00
2019-04-11T11:39:19.306Z,57.50
2019-04-11T11:42:02.074Z,58.70
2019-04-11T11:44:49.048Z,60.40
2019-04-11T11:47:39.859Z,61.10
2019-04-11T11:50:23.283Z,62.40
2019-04-11T11:53:13.173Z,62.00
2019-04-11T11:55:47.670Z,63.50
2019-04-11T11:58:33.421Z,64.10
2019-04-11T12:01:08.943Z,62.50
2019-04-11T12:03:46.661Z,64.20
2019-04-11T12:06:22.373Z,67.80
2019-04-11T12:08:54.049Z,67.40
2019-04-11T12:11:26.405Z,66.40
2019-04-11T12:14:17.972Z,66.80
2019-04-11T12:17:08.374Z,66.30
2019-04-11T12:19:52.916Z,68.20
2019-04-11T12:22:20.076Z,68.40
2019-04-11T12:24:56.537Z,68.60
2019-04-11T12:27:45.824Z,69.10
2019-04-11T12:30:23.402Z,67.90
2019-04-11T12:33:07.483Z,68.90
2019-04-11T12:35:40.158Z,67.10
2019-04-11T12:38:29.234Z,67.50
2019-04-11T12:41:01.883Z,67.10
2019-04-11T12:43:37.755Z,68.30
2019-04-11T12:46:16.579Z,68.40
2019-04-11T12:48:47.901Z,68.90
2019-04-11T12:51:36.686Z,70.50
2019-04-11T12:54:07.641Z,71.80
2019-04-11T12:56:40.667Z,72.30
2019-04-11T12:59:11.870Z,72.30
2019-04-11T13:01:53.092Z,74.50
2019-04-11T13:04:25.766Z,74.70
2019-04-11T13:07:04.333Z,74.30
2019-04-11T13:09:39.981Z,72.80
2019-04-11T13:12:29.191Z,72.10
2019-04-11T13:15:02.725Z,69.00
2019-04-11T13:17:38.163Z,66.60
2019-04-11T13:20:27.159Z,70.50
2019-04-11T13:23:15.929Z,71.70
2019-04-11T13:25:50.908Z,74.10
2019-04-11T13:28:21.814Z,75.30
2019-04-11T13:31:10.563Z,75.40
2019-04-11T13:33:41.740Z,77.80
2019-04-11T13:36:16.916Z,79.10
2019-04-11T13:38:47.707Z,82.50
2019-04-11T13:41:36.477Z,84.80
2019-04-11T13:44:09.865Z,87.20
2019-04-11T13:46:45.442Z,89.60
2019-04-11T13:49:30.042Z,90.40
2019-04-11T13:52:19.335Z,90.10
2019-04-11T13:55:03.796Z,91.60
2019-04-11T13:57:38.962Z,91.70
2019-04-11T14:00:28.738Z,92.00
2019-04-11T14:03:04.127Z,92.70
2019-04-11T14:05:36.721Z,91.90
2019-04-11T14:08:07.667Z,91.60
2019-04-11T14:10:39.800Z,93.00
2019-04-11T14:13:10.764Z,93.20
2019-04-11T14:15:45.999Z,96.00
2019-04-11T14:18:21.135Z,99.10
2019-04-11T14:20:53.543Z,99.90
2019-04-11T14:23:26.147Z,99.90
2019-04-11T14:26:01.540Z,99.90
2019-04-11T14:28:34.009Z,99.90
2019-04-11T14:31:07.559Z,99.90
2019-04-11T14:33:46.322Z,99.90
2019-04-11T14:36:35.421Z,99.90
2019-04-11T14:39:09.030Z,99.90
2019-04-11T14:41:42.209Z,99.90
2019-04-11T14:44:15.809Z,99.90
2019-04-11T14:47:06.636Z,99.90
2019-04-11T14:49:36.027Z,99.90
2019-04-11T14:52:16.921Z,99.90
2019-04-11T14:54:49.221Z,99.90
2019-04-11T14:57:30.331Z,99.90
2019-04-11T15:00:03.112Z,99.90
2019-04-11T15:02:37.171Z,99.90
2019-04-11T15:05:14.436Z,99.90
2019-04-11T15:07:55.482Z,99.90
2019-04-11T15:10:31.111Z,99.90
2019-04-11T15:13:02.495Z,99.90
2019-04-11T15:15:40.592Z,99.90
2019-04-11T15:18:11.840Z,99.90
2019-04-11T15:20:54.656Z,99.90
2019-04-11T15:23:28.068Z,99.90
2019-04-11T15:26:22.864Z,99.90
2019-04-11T15:28:58.466Z,99.90
2019-04-11T15:31:39.062Z,99.90
2019-04-11T15:34:21.732Z,99.90
2019-04-11T15:36:57.774Z,99.90
2019-04-11T15:39:45.758Z,99.90
2019-04-11T15:42:20.076Z,99.90
2019-04-11T15:45:04.424Z,99.90
2019-04-11T15:47:37.245Z,99.90
2019-04-11T15:50:26.325Z,99.90
2019-04-11T15:53:00.802Z,99.90
2019-04-11T15:55:37.690Z,99.90
2019-04-11T15:58:12.550Z,99.90
2019-04-11T16:00:55.518Z,99.90
2019-04-11T16:03:26.426Z,99.90
2019-04-11T16:06:05.079Z,99.90
2019-04-11T16:08:39.476Z,99.90
2019-04-11T16:11:20.263Z,99.90
2019-04-11T16:13:58.710Z,99.90
2019-04-11T16:16:31.242Z,99.90
2019-04-11T16:19:21.209Z,99.90
2019-04-11T16:21:54.898Z,99.90
2019-04-11T16:24:28.484Z,99.90
2019-04-11T16:27:04.129Z,99.90
2019-04-11T16:29:38.928Z,99.90
2019-04-11T16:32:13.737Z,99.90
2019-04-11T16:34:48.506Z,99.90
2019-04-11T16:37:20.837Z,99.90
2019-04-11T16:40:10.310Z,99.90
2019-04-11T16:42:43.243Z,99.90
2019-04-11T16:45:25.129Z,99.90
2019-04-11T16:48:02.798Z,99.90
2019-04-11T16:50:34.027Z,99.90
2019-04-11T16:53:05.483Z,99.90
2019-04-11T16:55:41.929Z,99.90
2019-04-11T16:58:15.206Z,99.90
2019-04-11T17:00:43.923Z,99.90
2019-04-11T17:03:17.180Z,99.90
2019-04-11T17:05:49.586Z,99.90
2019-04-11T17:08:31.498Z,99.90
2019-04-11T17:11:13.227Z,99.90
2019-04-11T17:13:44.211Z,99.90
2019-04-11T17:16:15.864Z,99.90
2019-04-11T17:18:46.635Z,99.90
2019-04-11T17:21:17.534Z,99.90
2019-04-11T17:23:48.367Z,99.90
2019-04-11T17:26:22.871Z,99.90
2019-04-11T17:28:54.721Z,99.90
2019-04-11T17:31:26.687Z,99.90
2019-04-11T17:34:01.432Z,99.90
2019-04-11T17:36:33.821Z,99.90
2019-04-11T17:39:07.741Z,99.90
2019-04-11T17:41:42.043Z,99.90
2019-04-11T17:44:15.571Z,99.90
2019-04-11T17:46:49.640Z,99.90
2019-04-11T17:49:22.220Z,99.90
2019-04-11T17:51:55.945Z,99.90
2019-04-11T17:54:28.476Z,99.90
2019-04-11T17:57:01.032Z,99.90
2019-04-11T17:59:34.467Z,99.90
2019-04-11T18:02:10.436Z,99.90
2019-04-11T18:04:48.017Z,99.90
2019-04-11T18:07:20.635Z,99.90
2019-04-11T18:09:56.010Z,99.90
2019-04-11T18:12:28.023Z,99.90
2019-04-11T18:15:04.224Z,99.90
2019-04-11T18:17:36.693Z,99.90
2019-04-11T18:20:10.628Z,99.90
2019-04-11T18:22:43.750Z,99.90
2019-04-11T18:25:20.756Z,99.90
2019-04-11T18:27:52.412Z,99.90
2019-04-11T18:30:24.249Z,99.90
2019-04-11T18:32:56.686Z,99.90
2019-04-11T18:35:31.930Z,99.90
2019-04-11T18:38:04.633Z,99.90
2019-04-11T18:40:37.961Z,99.90
2019-04-11T18:43:11.195Z,99.90
2019-04-11T18:45:45.330Z,99.90
2019-04-11T18:48:18.562Z,99.90
2019-04-11T18:50:50.803Z,99.90
2019-04-11T18:53:25.202Z,99.90
2019-04-11T18:55:57.713Z,99.90
2019-04-11T18:58:33.699Z,99.90
2019-04-11T19:01:08.863Z,99.90
2019-04-11T19:03:41.402Z,99.90
2019-04-11T19:06:14.705Z,99.90
2019-04-11T19:08:47.012Z,99.90
2019-04-11T19:11:22.571Z,99.90
2019-04-11T19:13:54.539Z,99.90
2019-04-11T19:16:27.006Z,99.90
2019-04-11T19:19:01.717Z,99.90
2019-04-11T19:21:33.697Z,99.90
2019-04-11T19:24:12.983Z,99.90
2019-04-11T19:26:46.339Z,99.90
2019-04-11T19:29:17.765Z,99.90
2019-04-11T19:31:49.925Z,99.90
2019-04-11T19:34:23.410Z,99.90
2019-04-11T19:36:55.792Z,99.90
2019-04-11T19:39:28.291Z,99.90
2019-04-11T19:42:08.477Z,99.90
2019-04-11T19:44:35.661Z,99.90
2019-04-11T19:47:08.244Z,99.90
2019-04-11T19:49:42.196Z,99.90
2019-04-11T19:52:15.222Z,99.90
2019-04-11T19:54:48.954Z,99.90
2019-04-11T19:57:20.937Z,99.90
2019-04-11T19:59:52.562Z,99.90
2019-04-11T20:02:24.767Z,99.90
2019-04-11T20:04:58.396Z,99.90
2019-04-11T20:07:29.659Z,99.90
2019-04-11T20:10:01.670Z,99.90
2019-04-11T20:12:33.861Z,99.90
2019-04-11T20:15:08.688Z,99.90
2019-04-11T20:17:44.529Z,99.90
2019-04-11T20:20:12.575Z,99.90
2019-04-11T20:22:43.572Z,99.90
2019-04-11T20:25:16.802Z,99.90
2019-04-11T20:27:48.197Z,99.90
2019-04-11T20:30:22.927Z,99.90
2019-04-11T20:32:53.469Z,99.90
2019-04-11T20:35:29.214Z,99.90
2019-04-11T20:37:57.744Z,99.90
2019-04-11T20:40:28.862Z,99.90
2019-04-11T20:42:59.978Z,99.90
2019-04-11T20:45:34.278Z,99.90
2019-04-11T20:48:05.712Z,99.90
2019-04-11T20:50:37.020Z,99.90
2019-04-11T20:53:12.919Z,99.90
2019-04-11T20:55:41.836Z,99.90
2019-04-11T20:58:13.262Z,99.90
2019-04-11T21:00:50.638Z,99.90
2019-04-11T21:03:17.339Z,99.90
2019-04-11T21:05:49.580Z,99.90
2019-04-11T21:08:20.959Z,99.90
2019-04-11T21:10:52.188Z,99.90
2019-04-11T21:13:23.215Z,99.90
2019-04-11T21:15:55.472Z,99.90
2019-04-11T21:18:26.682Z,99.90
2019-04-11T21:20:57.762Z,99.90
2019-04-11T21:23:29.779Z,99.90
2019-04-11T21:26:04.759Z,99.90
2019-04-11T21:28:37.661Z,99.90
2019-04-11T21:31:12.161Z,99.90
2019-04-11T21:33:46.360Z,99.90
2019-04-11T21:36:21.407Z,99.90
2019-04-11T21:38:53.299Z,99.90
2019-04-11T21:41:26.053Z,99.90
2019-04-11T21:44:00.594Z,99.90
2019-04-11T21:46:41.672Z,99.90
2019-04-11T21:49:11.314Z,99.90
2019-04-11T21:51:42.834Z,99.90
2019-04-11T21:54:15.080Z,99.90
2019-04-11T21:56:49.620Z,99.90
2019-04-11T21:59:22.468Z,99.90
2019-04-11T22:01:54.127Z,99.90
2019-04-11T22:04:28.548Z,99.90
2019-04-11T22:07:03.249Z,99.90
2019-04-11T22:09:36.229Z,99.90
2019-04-11T22:12:19.428Z,99.90
2019-04-11T22:14:50.851Z,99.90
2019-04-11T22:17:23.541Z,99.90
2019-04-11T22:19:56.703Z,99.90
2019-04-11T22:22:29.891Z,99.90
2019-04-11T22:25:01.756Z,99.90
2019-04-11T22:27:36.485Z,99.90
2019-04-11T22:30:10.155Z,99.90
2019-04-11T22:32:44.567Z,99.90
2019-04-11T22:35:16.171Z,99.90
2019-04-11T22:37:48.750Z,99.90
2019-04-11T22:40:21.635Z,99.90
2019-04-11T22:42:53.954Z,99.90
2019-04-11T22:45:25.319Z,99.90
2019-04-11T22:47:56.983Z,99.90
2019-04-11T22:50:28.638Z,99.90
2019-04-11T22:53:01.072Z,99.90
2019-04-11T22:55:32.238Z,99.90
2019-04-11T22:58:04.831Z,99.90
2019-04-11T23:00:36.032Z,99.90
2019-04-11T23:03:22.653Z,99.90
2019-04-11T23:05:56.258Z,99.90
2019-04-11T23:08:29.082Z,99.90
2019-04-11T23:11:03.224Z,99.90
2019-04-11T23:13:37.389Z,99.90
2019-04-11T23:16:12.029Z,99.90
2019-04-11T23:18:44.870Z,99.90
2019-04-11T23:21:16.631Z,99.90
2019-04-11T23:23:49.061Z,99.90
2019-04-11T23:26:21.546Z,99.90
2019-04-11T23:28:56.068Z,99.90
2019-04-11T23:31:27.584Z,99.90
2019-04-11T23:34:01.402Z,99.90
2019-04-11T23:36:33.592Z,99.90
2019-04-11T23:39:07.352Z,99.90
2019-04-11T23:41:39.515Z,99.90
2019-04-11T23:44:13.511Z,99.90
2019-04-11T23:46:44.955Z,99.90
2019-04-11T23:49:18.749Z,99.90
2019-04-11T23:51:49.928Z,99.90
2019-04-11T23:54:23.338Z,99.90
2019-04-11T23:56:54.594Z,99.90
2019-04-11T23:59:31.752Z,99.90
